Time;durP1;ratioP1;P1;durP2;ratioP2;P2;SDS_P1;SDS_P2;PMS_P1;PMS_P2;Temp;Humidity;BMP_temperature;BMP_pressure;BME280_temperature;BME280_humidity;BME280_pressure;Samples;Min_cycle;Max_cycle;Signal;HPM_P1;HPM_P2
2022/02/20 00:00:27;;;;;;;;;1.50;1.50;;;;;11.52;58.95;101699.63;2393207;28;45420;-86
2022/02/20 00:01:38;;;;;;;;;3.75;2.25;;;;;11.52;58.93;101696.97;2393332;28;44770;-86
2022/02/20 00:02:49;;;;;;;;;1.25;1.25;;;;;11.52;59.34;101691.72;2392814;28;45358;-85
2022/02/20 00:03:59;;;;;;;;;1.25;0.50;;;;;11.52;59.83;101697.84;2398265;28;45263;-86
2022/02/20 00:05:10;;;;;;;;;1.25;1.25;;;;;11.48;59.04;101689.16;2393158;28;46372;-87
2022/02/20 00:06:20;;;;;;;;;1.75;1.75;;;;;11.43;59.47;101693.63;2393299;28;45420;-85
2022/02/20 00:07:30;;;;;;;;;0.50;0.50;;;;;11.40;59.61;101693.72;2392327;28;47294;-86
2022/02/20 00:08:41;;;;;;;;;1.50;1.50;;;;;11.41;59.57;101700.72;2392926;28;45250;-86
2022/02/20 00:09:51;;;;;;;;;3.50;2.25;;;;;11.40;59.37;101699.00;2392920;28;46516;-85
2022/02/20 00:11:02;;;;;;;;;2.25;1.50;;;;;11.39;60.02;101705.13;2397700;28;45163;-84
2022/02/20 00:12:12;;;;;;;;;2.00;0.50;;;;;11.39;59.73;101699.88;2400405;28;45332;-85
2022/02/20 00:13:23;;;;;;;;;1.50;1.25;;;;;11.38;59.67;101700.78;2392163;28;45440;-84
2022/02/20 00:14:33;;;;;;;;;1.00;1.00;;;;;11.38;59.62;101695.53;2392969;28;45331;-85
2022/02/20 00:15:43;;;;;;;;;1.75;1.75;;;;;11.35;59.53;101696.47;2395932;28;44794;-85
2022/02/20 00:16:54;;;;;;;;;1.50;1.50;;;;;11.39;59.55;101699.88;2394554;28;45294;-85
2022/02/20 00:18:04;;;;;;;;;1.25;1.00;;;;;11.35;59.69;101693.81;2394140;28;45217;-84
2022/02/20 00:19:14;;;;;;;;;0.50;0.50;;;;;11.38;59.63;101699.91;2394874;28;45472;-86
2022/02/20 00:20:25;;;;;;;;;0.50;0.50;;;;;11.40;59.91;101704.25;2393999;28;45215;-89
2022/02/20 00:21:35;;;;;;;;;3.50;2.00;;;;;11.40;59.84;101701.63;2394197;28;45271;-81
2022/02/20 00:22:46;;;;;;;;;2.25;0.50;;;;;11.40;59.73;101704.25;2394193;28;45169;-82
2022/02/20 00:23:56;;;;;;;;;2.25;1.25;;;;;11.42;59.81;101702.44;2393915;28;48161;-82
2022/02/20 00:25:08;;;;;;;;;1.50;0.50;;;;;11.42;59.67;101706.84;2387292;28;44779;-82
2022/02/20 00:26:18;;;;;;;;;1.25;1.25;;;;;11.43;60.04;101698.06;2394262;28;45503;-83
2022/02/20 00:27:29;;;;;;;;;2.75;0.50;;;;;11.46;60.04;101700.59;2404364;28;45296;-81
2022/02/20 00:28:39;;;;;;;;;0.75;0.75;;;;;11.44;59.69;101703.28;2395788;28;45344;-81
2022/02/20 00:29:50;;;;;;;;;0.50;0.50;;;;;11.44;60.15;101698.03;2394770;28;45389;-81
2022/02/20 00:31:00;;;;;;;;;3.00;0.50;;;;;11.47;59.80;101710.25;2395501;28;45304;-81
2022/02/20 00:32:11;;;;;;;;;4.25;1.25;;;;;11.48;60.21;101697.03;2404295;28;45368;-82
2022/02/20 00:33:21;;;;;;;;;0.75;0.75;;;;;11.51;60.08;101708.44;2397165;28;45289;-82
2022/02/20 00:34:31;;;;;;;;;3.00;1.00;;;;;11.50;59.99;101709.31;2394332;28;45344;-81
2022/02/20 00:35:42;;;;;;;;;3.00;1.50;;;;;11.53;59.90;101704.00;2394718;28;45348;-82
2022/02/20 00:36:52;;;;;;;;;0.50;0.25;;;;;11.52;60.20;101704.88;2399288;28;45149;-82
2022/02/20 00:38:05;;;;;;;;;0.50;0.50;;;;;11.53;60.28;101704.00;2400775;28;45271;-82
2022/02/20 00:39:15;;;;;;;;;2.50;0.50;;;;;11.54;59.89;101711.84;2403442;28;44588;-82
2022/02/20 00:40:27;;;;;;;;;3.25;1.50;;;;;11.53;59.84;101710.09;2400972;28;45359;-82
2022/02/20 00:41:37;;;;;;;;;2.25;0.00;;;;;11.53;60.17;101694.31;2394781;28;45496;-82
2022/02/20 00:42:48;;;;;;;;;0.25;0.25;;;;;11.56;60.52;101701.28;2394499;28;45324;-82
2022/02/20 00:43:58;;;;;;;;;1.25;1.25;;;;;11.57;60.39;101703.03;2394828;28;45279;-82
2022/02/20 00:45:08;;;;;;;;;1.50;1.25;;;;;11.61;60.52;101709.06;2397180;28;45420;-82
2022/02/20 00:46:19;;;;;;;;;1.25;1.25;;;;;11.59;60.25;101701.22;2398987;28;44801;-83
2022/02/20 00:47:29;;;;;;;;;0.50;0.50;;;;;11.62;60.31;101714.31;2394196;28;45404;-82
2022/02/20 00:48:40;;;;;;;;;1.50;1.50;;;;;11.63;60.53;101697.59;2394769;28;45478;-80
2022/02/20 00:49:50;;;;;;;;;1.75;1.00;;;;;11.63;60.49;101702.03;2393513;28;47113;-80
2022/02/20 00:51:00;;;;;;;;;4.00;2.50;;;;;11.63;60.23;101705.50;2387063;28;44790;-80
2022/02/20 00:52:11;;;;;;;;;2.50;1.50;;;;;11.66;60.36;101705.44;2394120;28;46301;-80
2022/02/20 00:53:21;;;;;;;;;1.50;1.00;;;;;11.63;60.23;101702.88;2394686;28;45259;-80
2022/02/20 00:54:31;;;;;;;;;5.25;2.00;;;;;11.64;60.49;101695.84;2394368;28;45220;-80
2022/02/20 00:55:42;;;;;;;;;1.00;1.00;;;;;11.65;60.58;101706.38;2400636;28;45250;-80
2022/02/20 00:56:52;;;;;;;;;0.75;0.75;;;;;11.66;60.35;101708.09;2394644;28;46302;-80
2022/02/20 00:58:03;;;;;;;;;2.00;2.00;;;;;11.68;60.54;101708.06;2394548;28;44586;-80
2022/02/20 00:59:13;;;;;;;;;5.75;2.50;;;;;11.70;60.32;101706.25;2394475;28;45207;-80
2022/02/20 01:00:24;;;;;;;;;2.00;2.00;;;;;11.70;60.87;101701.84;2394761;28;44638;-80
2022/02/20 01:01:34;;;;;;;;;2.25;0.75;;;;;11.72;60.64;101703.59;2394484;28;45221;-80
2022/02/20 01:02:45;;;;;;;;;1.00;1.00;;;;;11.73;60.56;101711.44;2396014;28;44683;-80
2022/02/20 01:03:55;;;;;;;;;3.75;1.00;;;;;11.71;60.81;101702.72;2394567;28;46065;-80
2022/02/20 01:05:06;;;;;;;;;1.50;1.50;;;;;11.70;60.70;101695.72;2394676;28;45207;-80
2022/02/20 01:06:17;;;;;;;;;1.25;0.50;;;;;11.70;60.83;101701.84;2401155;28;46291;-80
2022/02/20 01:07:27;;;;;;;;;6.00;2.75;;;;;11.74;60.40;101701.78;2394129;28;44665;-80
2022/02/20 01:08:37;;;;;;;;;2.50;1.50;;;;;11.72;60.54;101690.41;2394281;28;46503;-82
2022/02/20 01:09:49;;;;;;;;;4.75;3.25;;;;;11.75;60.36;101699.13;2394342;28;45388;-82
2022/02/20 01:10:59;;;;;;;;;1.75;1.75;;;;;11.74;60.57;101686.84;2399811;28;45285;-82
2022/02/20 01:12:10;;;;;;;;;1.50;0.50;;;;;11.76;60.54;101689.44;2394662;28;45298;-81
2022/02/20 01:13:20;;;;;;;;;2.50;1.50;;;;;11.78;60.68;101692.91;2397881;28;45487;-81
2022/02/20 01:14:31;;;;;;;;;1.50;1.50;;;;;11.78;60.88;101692.91;2400837;28;45431;-81
2022/02/20 01:15:41;;;;;;;;;1.50;1.50;;;;;11.79;60.57;101694.63;2394339;28;45416;-81
2022/02/20 01:16:52;;;;;;;;;3.50;3.50;;;;;11.80;60.50;101696.38;2394517;28;44694;-81
2022/02/20 01:18:02;;;;;;;;;1.00;1.00;;;;;11.81;60.52;101706.00;2394007;28;46264;-81
2022/02/20 01:19:13;;;;;;;;;3.50;1.50;;;;;11.83;60.83;101696.28;2394477;28;45174;-81
2022/02/20 01:20:23;;;;;;;;;6.00;2.50;;;;;11.82;60.43;101694.56;2395325;28;45466;-80
2022/02/20 01:21:34;;;;;;;;;4.25;2.00;;;;;11.83;60.54;101696.28;2396777;28;44586;-80
2022/02/20 01:22:44;;;;;;;;;3.00;2.25;;;;;11.84;60.76;101700.69;2394189;28;45306;-80
2022/02/20 01:23:55;;;;;;;;;3.00;2.00;;;;;11.86;60.59;101701.50;2394540;28;45238;-79
2022/02/20 01:25:05;;;;;;;;;0.50;0.50;;;;;11.84;60.33;101695.41;2393965;28;46236;-79
2022/02/20 01:26:16;;;;;;;;;1.50;1.50;;;;;11.86;60.42;101693.59;2394508;28;45300;-79
2022/02/20 01:27:26;;;;;;;;;2.25;2.25;;;;;11.85;60.45;101696.28;2394943;28;45437;-79
2022/02/20 01:28:36;;;;;;;;;5.75;3.00;;;;;11.88;60.31;101699.69;2385001;28;45226;-79
2022/02/20 01:29:47;;;;;;;;;0.50;0.50;;;;;11.86;60.41;101690.97;2389797;28;46194;-79
2022/02/20 01:30:57;;;;;;;;;2.25;1.00;;;;;11.89;60.54;101700.56;2394419;28;44741;-79
2022/02/20 01:32:08;;;;;;;;;1.50;1.50;;;;;11.90;60.83;101691.78;2394345;28;45632;-79
2022/02/20 01:33:18;;;;;;;;;4.00;1.75;;;;;11.91;60.58;101693.50;2393306;28;45282;-79
2022/02/20 01:34:29;;;;;;;;;2.25;2.25;;;;;11.90;60.50;101692.63;2393600;28;46389;-79
2022/02/20 01:35:40;;;;;;;;;4.25;1.50;;;;;11.91;60.64;101686.47;2394269;28;44770;-79
2022/02/20 01:36:50;;;;;;;;;3.00;1.50;;;;;11.92;60.74;101688.19;2394323;28;45373;-78
2022/02/20 01:38:01;;;;;;;;;2.75;1.00;;;;;11.90;60.92;101687.34;2399278;28;45520;-78
2022/02/20 01:39:11;;;;;;;;;3.00;2.50;;;;;11.95;60.79;101686.41;2400626;28;45273;-78
2022/02/20 01:40:22;;;;;;;;;2.00;1.00;;;;;11.92;60.57;101695.22;2394390;28;45213;-78
2022/02/20 01:41:32;;;;;;;;;1.50;1.00;;;;;11.93;60.74;101697.81;2394260;28;46020;-78
2022/02/20 01:42:43;;;;;;;;;4.75;2.25;;;;;11.97;60.53;101705.66;2394301;28;45154;-78
2022/02/20 01:43:54;;;;;;;;;3.50;2.00;;;;;11.96;60.62;101703.91;2399719;28;45342;-78
2022/02/20 01:45:10;;;;;;;;;1.50;1.50;;;;;11.96;60.78;101703.91;2393980;28;45209;-78
2022/02/20 01:46:20;;;;;;;;;3.75;3.75;;;;;11.93;60.60;101707.50;2394214;28;45467;-78
2022/02/20 01:47:31;;;;;;;;;0.50;0.25;;;;;11.94;60.86;101706.59;2393990;28;45447;-78
2022/02/20 01:48:41;;;;;;;;;2.00;2.00;;;;;11.93;60.85;101703.09;2394200;28;45485;-79
2022/02/20 01:49:52;;;;;;;;;2.75;2.25;;;;;11.93;60.70;101707.50;2394034;28;45282;-81
2022/02/20 01:51:03;;;;;;;;;2.25;1.25;;;;;11.95;60.74;101710.09;2394036;28;45247;-81
2022/02/20 01:52:14;;;;;;;;;3.00;1.75;;;;;11.96;60.89;101707.41;2394282;28;45182;-81
2022/02/20 01:53:24;;;;;;;;;4.25;3.00;;;;;11.97;61.19;101714.44;2402272;28;45322;-80
2022/02/20 01:54:35;;;;;;;;;5.25;2.50;;;;;11.98;60.86;101715.28;2396489;28;45171;-79
2022/02/20 01:55:45;;;;;;;;;3.50;2.00;;;;;11.95;60.75;101710.94;2394124;28;45490;-80
2022/02/20 01:56:56;;;;;;;;;3.00;2.25;;;;;11.96;61.04;101706.56;2394326;28;45207;-80
2022/02/20 01:58:06;;;;;;;;;3.25;2.00;;;;;11.95;61.04;101694.28;2393335;28;47323;-80
2022/02/20 01:59:17;;;;;;;;;2.25;2.25;;;;;11.96;60.85;101698.66;2393685;28;45574;-80
2022/02/20 02:00:29;;;;;;;;;1.25;1.25;;;;;11.96;61.01;101693.38;2394008;28;45422;-81
2022/02/20 02:01:39;;;;;;;;;2.25;0.75;;;;;11.96;61.05;101688.09;2393563;28;45245;-81
2022/02/20 02:02:50;;;;;;;;;2.00;2.00;;;;;11.98;61.14;101688.94;2396608;28;45514;-80
2022/02/20 02:04:00;;;;;;;;;2.50;1.75;;;;;11.95;61.10;101681.13;2398479;28;45246;-80
2022/02/20 02:05:11;;;;;;;;;2.50;1.00;;;;;11.93;61.31;101684.66;2393983;28;45353;-80
2022/02/20 02:06:21;;;;;;;;;3.25;2.25;;;;;11.96;60.95;101685.47;2393891;28;45465;-80
2022/02/20 02:07:32;;;;;;;;;2.75;1.00;;;;;11.91;61.02;101673.28;2393977;28;45215;-80
2022/02/20 02:08:42;;;;;;;;;2.75;2.00;;;;;11.94;61.04;101672.34;2394223;28;45167;-80
2022/02/20 02:09:53;;;;;;;;;3.00;3.00;;;;;11.93;61.08;101676.75;2393753;28;46633;-80
2022/02/20 02:11:04;;;;;;;;;1.50;1.50;;;;;11.95;61.04;101673.22;2394110;28;45230;-80
2022/02/20 02:12:15;;;;;;;;;2.75;2.50;;;;;11.95;60.87;101673.22;2394036;28;46775;-80
2022/02/20 02:13:25;;;;;;;;;5.50;2.00;;;;;11.96;61.04;101680.19;2395602;28;45281;-80
2022/02/20 02:14:59;;;;;;;;;4.00;2.50;;;;;11.94;61.27;101680.25;2393802;28;45259;-80
2022/02/20 02:16:10;;;;;;;;;3.25;2.00;;;;;11.90;61.23;101674.19;2394064;28;45369;-80
2022/02/20 02:17:20;;;;;;;;;3.25;2.50;;;;;11.92;60.50;101674.16;2393592;28;45399;-80
2022/02/20 02:18:30;;;;;;;;;3.00;1.50;;;;;11.88;61.03;101672.47;2394190;28;45301;-81
2022/02/20 02:19:41;;;;;;;;;6.75;3.00;;;;;11.87;61.28;101671.63;2392809;28;47481;-81
2022/02/20 02:20:51;;;;;;;;;2.00;1.00;;;;;11.90;61.11;101682.06;2393463;28;45356;-81
2022/02/20 02:22:02;;;;;;;;;4.00;1.00;;;;;11.88;61.09;101681.25;2401627;28;46142;-80
2022/02/20 02:23:17;;;;;;;;;2.50;2.25;;;;;11.91;61.11;101689.09;2394177;28;45163;-80
2022/02/20 02:24:27;;;;;;;;;4.75;2.50;;;;;11.89;61.36;101680.38;2393574;28;46204;-81
2022/02/20 02:25:39;;;;;;;;;7.50;2.00;;;;;11.92;61.17;101693.47;2393992;28;44706;-81
2022/02/20 02:26:49;;;;;;;;;3.00;2.00;;;;;11.91;61.03;101682.94;2393786;28;45460;-81
2022/02/20 02:27:59;;;;;;;;;3.50;1.75;;;;;11.90;60.96;101678.59;2395103;28;45440;-80
2022/02/20 02:29:10;;;;;;;;;2.50;2.00;;;;;11.90;61.14;101687.34;2393742;28;45408;-80
2022/02/20 02:30:20;;;;;;;;;5.75;4.75;;;;;11.87;61.04;101687.44;2393153;28;45171;-80
2022/02/20 02:31:30;;;;;;;;;6.00;2.00;;;;;11.89;61.24;101690.03;2397782;28;45417;-80
2022/02/20 02:32:41;;;;;;;;;3.25;3.25;;;;;11.86;61.45;101684.81;2393733;28;45270;-80
2022/02/20 02:33:51;;;;;;;;;3.00;2.00;;;;;11.86;61.28;101688.31;2393765;28;46305;-80
2022/02/20 02:35:02;;;;;;;;;1.25;1.25;;;;;11.83;61.23;101691.03;2393706;28;45387;-80
2022/02/20 02:36:13;;;;;;;;;2.25;1.25;;;;;11.81;61.43;101687.56;2393838;28;45526;-80
2022/02/20 02:37:24;;;;;;;;;3.00;2.00;;;;;11.81;61.63;101687.56;2393897;28;44768;-80
2022/02/20 02:38:35;;;;;;;;;6.00;3.00;;;;;11.81;61.33;101693.72;2393697;28;45328;-80
2022/02/20 02:39:45;;;;;;;;;3.50;2.50;;;;;11.82;61.48;101689.31;2393834;28;45175;-80
2022/02/20 02:40:59;;;;;;;;;4.00;1.75;;;;;11.84;61.45;101689.25;2392788;28;46668;-80
2022/02/20 02:42:10;;;;;;;;;8.75;2.75;;;;;11.85;61.42;101678.72;2391183;28;44725;-80
2022/02/20 02:43:20;;;;;;;;;5.00;2.25;;;;;11.86;61.29;101682.19;2393701;28;45329;-80
2022/02/20 02:44:31;;;;;;;;;4.00;2.75;;;;;11.85;61.48;101670.81;2393975;28;44741;-80
2022/02/20 02:45:41;;;;;;;;;2.50;1.50;;;;;11.84;61.63;101668.19;2393192;28;45501;-80
2022/02/20 02:46:52;;;;;;;;;1.75;1.75;;;;;11.85;61.29;101672.56;2393863;28;45349;-80
2022/02/20 02:48:02;;;;;;;;;1.75;1.75;;;;;11.82;61.37;101677.00;2393491;28;45200;-80
2022/02/20 02:49:13;;;;;;;;;3.00;1.50;;;;;11.82;61.57;101678.78;2394574;28;45227;-80
2022/02/20 02:50:23;;;;;;;;;4.50;2.25;;;;;11.84;61.56;101676.09;2393715;28;45441;-80
2022/02/20 02:51:34;;;;;;;;;2.25;1.75;;;;;11.82;61.40;101676.16;2393873;28;45213;-80
2022/02/20 02:52:44;;;;;;;;;4.25;1.50;;;;;11.85;61.47;101683.09;2392990;28;48029;-81
2022/02/20 02:53:56;;;;;;;;;6.75;2.50;;;;;11.84;61.31;101684.00;2393298;28;45270;-80
2022/02/20 02:55:06;;;;;;;;;3.00;2.00;;;;;11.84;61.45;101687.50;2393622;28;45394;-80
2022/02/20 02:56:17;;;;;;;;;1.25;1.25;;;;;11.84;61.59;101686.63;2393108;28;45350;-81
2022/02/20 02:57:27;;;;;;;;;1.75;1.00;;;;;11.86;61.49;101695.34;2393055;28;45355;-81
2022/02/20 02:58:37;;;;;;;;;5.75;4.00;;;;;11.88;61.62;101701.44;2396908;28;45298;-79
2022/02/20 02:59:48;;;;;;;;;5.75;2.25;;;;;11.84;61.26;101700.69;2398575;28;45388;-83
2022/02/20 03:00:58;;;;;;;;;4.50;2.25;;;;;11.85;61.59;101697.16;2393853;28;45427;-83
2022/02/20 03:02:09;;;;;;;;;3.25;1.75;;;;;11.85;61.58;101697.16;2393455;28;45342;-83
2022/02/20 03:03:19;;;;;;;;;4.50;2.25;;;;;11.84;61.73;101689.25;2393635;28;45296;-83
2022/02/20 03:04:31;;;;;;;;;3.75;1.00;;;;;11.82;61.80;101694.56;2393732;28;46552;-82
2022/02/20 03:05:42;;;;;;;;;3.75;2.75;;;;;11.81;61.03;101698.09;2393632;28;44710;-83
2022/02/20 03:06:52;;;;;;;;;3.75;0.75;;;;;11.79;61.85;101692.88;2392806;28;47259;-83
2022/02/20 03:08:02;;;;;;;;;2.75;0.50;;;;;11.79;61.29;101699.91;2393239;28;45242;-83
2022/02/20 03:09:13;;;;;;;;;3.75;2.00;;;;;11.76;61.29;101692.06;2394087;28;45546;-81
2022/02/20 03:10:23;;;;;;;;;4.50;3.25;;;;;11.75;61.68;101693.84;2393874;28;44748;-81
2022/02/20 03:11:34;;;;;;;;;2.00;2.00;;;;;11.78;61.51;101698.16;2393520;28;45413;-81
2022/02/20 03:12:45;;;;;;;;;4.50;2.25;;;;;11.75;61.61;101696.50;2393661;28;45247;-81
2022/02/20 03:13:55;;;;;;;;;2.50;2.50;;;;;11.76;61.65;101699.97;2393447;28;45211;-81
2022/02/20 03:15:07;;;;;;;;;3.75;3.50;;;;;11.74;61.66;101694.75;2393709;28;45159;-80
2022/02/20 03:16:17;;;;;;;;;4.25;3.75;;;;;11.72;61.78;101686.03;2393242;28;45413;-80
2022/02/20 03:17:29;;;;;;;;;3.50;2.50;;;;;11.74;61.72;101685.97;2393364;28;45303;-81
2022/02/20 03:18:40;;;;;;;;;4.00;4.00;;;;;11.72;61.72;101690.41;2393452;28;45400;-81
2022/02/20 03:19:50;;;;;;;;;5.75;1.75;;;;;11.69;61.55;101684.31;2398701;28;46519;-80
2022/02/20 03:21:03;;;;;;;;;5.50;3.00;;;;;11.69;61.61;101681.69;2394768;28;46196;-80
2022/02/20 03:22:14;;;;;;;;;4.50;2.50;;;;;11.67;61.95;101674.72;2393463;28;45226;-80
2022/02/20 03:23:25;;;;;;;;;4.75;3.50;;;;;11.67;61.97;101680.00;2393481;28;46517;-80
2022/02/20 03:24:35;;;;;;;;;3.75;2.00;;;;;11.63;61.71;101684.44;2393647;28;45279;-80
2022/02/20 03:25:46;;;;;;;;;2.50;2.00;;;;;11.62;62.03;101679.22;2393376;28;45321;-80
2022/02/20 03:26:56;;;;;;;;;4.50;2.75;;;;;11.59;61.91;101677.53;2393550;28;45319;-80
2022/02/20 03:28:07;;;;;;;;;0.75;0.50;;;;;11.61;61.93;101688.88;2392655;28;46510;-80
2022/02/20 03:29:17;;;;;;;;;4.75;2.75;;;;;11.61;62.19;101691.50;2393661;28;44750;-80
2022/02/20 03:30:28;;;;;;;;;5.50;4.00;;;;;11.56;61.79;101688.97;2399965;28;46289;-80
2022/02/20 03:31:38;;;;;;;;;4.25;2.50;;;;;11.58;61.81;101700.34;2400470;28;45484;-80
2022/02/20 03:32:49;;;;;;;;;2.50;1.00;;;;;11.54;62.03;101695.19;2393134;28;46301;-81
2022/02/20 03:33:59;;;;;;;;;3.00;3.00;;;;;11.55;62.14;101707.47;2393610;28;45237;-80
2022/02/20 03:35:10;;;;;;;;;6.50;1.50;;;;;11.51;62.59;101698.75;2392293;28;46227;-80
2022/02/20 03:36:20;;;;;;;;;3.25;2.50;;;;;11.47;62.31;101700.59;2393035;28;44729;-80
2022/02/20 03:37:30;;;;;;;;;4.00;3.00;;;;;11.47;62.38;101711.13;2393475;28;45440;-80
2022/02/20 03:38:41;;;;;;;;;1.50;1.50;;;;;11.46;62.45;101708.50;2392701;28;45309;-83
2022/02/20 03:39:52;;;;;;;;;3.50;2.00;;;;;11.44;62.63;101702.41;2394987;28;46851;-86
2022/02/20 03:41:03;;;;;;;;;6.00;2.50;;;;;11.46;62.69;101705.88;2393627;28;45213;-85
2022/02/20 03:42:14;;;;;;;;;4.50;3.75;;;;;11.43;62.62;101705.97;2393320;28;46226;-85
2022/02/20 03:43:24;;;;;;;;;2.00;2.00;;;;;11.42;62.48;101705.09;2392721;28;45161;-85
2022/02/20 03:44:34;;;;;;;;;2.00;1.00;;;;;11.44;62.75;101699.78;2385781;28;48232;-86
2022/02/20 03:45:45;;;;;;;;;3.25;1.25;;;;;11.44;62.80;101695.38;2385618;28;45257;-85
2022/02/20 03:46:55;;;;;;;;;3.75;2.25;;;;;11.43;62.78;101700.69;2392833;28;45357;-85
2022/02/20 03:48:06;;;;;;;;;6.75;3.50;;;;;11.41;62.99;101698.06;2393237;28;45311;-86
2022/02/20 03:49:16;;;;;;;;;2.00;1.50;;;;;11.40;63.14;101709.53;2396049;28;46115;-84
2022/02/20 03:50:26;;;;;;;;;5.25;2.50;;;;;11.42;62.71;101705.09;2393267;28;45222;-85
2022/02/20 03:51:37;;;;;;;;;4.00;3.25;;;;;11.42;62.67;101696.31;2393379;28;45336;-85
2022/02/20 03:52:48;;;;;;;;;7.00;2.25;;;;;11.43;62.80;101704.16;2394115;28;45376;-85
2022/02/20 03:53:58;;;;;;;;;2.75;2.25;;;;;11.44;62.68;101699.78;2394951;28;45456;-87
2022/02/20 03:55:09;;;;;;;;;4.25;3.00;;;;;11.44;62.74;101699.78;2394361;28;45351;-87
2022/02/20 03:56:20;;;;;;;;;4.00;2.25;;;;;11.45;62.57;101702.41;2396876;28;47174;-86
2022/02/20 03:57:32;;;;;;;;;7.00;3.00;;;;;11.47;62.85;101704.97;2401282;28;45347;-87
2022/02/20 03:58:42;;;;;;;;;4.25;2.75;;;;;11.48;62.74;101712.00;2394109;28;46181;-86
2022/02/20 03:59:53;;;;;;;;;3.50;2.50;;;;;11.47;62.66;101710.25;2398453;28;44639;-87
2022/02/20 04:01:03;;;;;;;;;3.50;2.50;;;;;11.47;62.79;101702.34;2394270;28;47038;-85
2022/02/20 04:02:13;;;;;;;;;2.75;2.50;;;;;11.46;62.75;101697.97;2393902;28;45233;-85
2022/02/20 04:03:24;;;;;;;;;0.75;0.00;;;;;11.49;62.81;101700.56;2395168;28;46813;-85
2022/02/20 04:04:34;;;;;;;;;6.25;2.25;;;;;11.49;62.71;101703.19;2403713;28;44544;-85
2022/02/20 04:05:45;;;;;;;;;4.00;3.50;;;;;11.48;62.60;101707.56;2401047;28;46089;-87
2022/02/20 04:06:55;;;;;;;;;2.75;2.75;;;;;11.46;62.71;101704.09;2394989;28;45220;-85
2022/02/20 04:08:06;;;;;;;;;4.00;3.00;;;;;11.46;62.85;101704.09;2404335;28;46596;-85
2022/02/20 04:09:17;;;;;;;;;6.50;2.50;;;;;11.46;62.77;101698.84;2400868;28;45161;-85
2022/02/20 04:10:27;;;;;;;;;4.25;2.50;;;;;11.50;62.66;101704.06;2394509;28;45433;-86
2022/02/20 04:11:38;;;;;;;;;1.75;1.75;;;;;11.49;62.78;101692.66;2395025;28;45353;-87
2022/02/20 04:12:49;;;;;;;;;5.75;4.75;;;;;11.50;62.82;101693.53;2394604;28;46443;-87
2022/02/20 04:13:59;;;;;;;;;5.25;3.50;;;;;11.47;63.02;101683.91;2394758;28;45241;-88
2022/02/20 04:15:12;;;;;;;;;5.75;5.75;;;;;11.46;63.22;101693.59;2393937;28;46832;-87
2022/02/20 04:16:22;;;;;;;;;3.00;3.00;;;;;11.45;62.78;101688.34;2387820;28;45260;-89
2022/02/20 04:17:44;;;;;;;;;4.75;2.25;;;;;11.47;62.96;101691.81;2386888;28;47213;-89
2022/02/20 04:18:55;;;;;;;;;6.50;3.00;;;;;11.46;63.06;101684.81;2394680;28;44780;-88
2022/02/20 04:20:06;;;;;;;;;7.50;2.25;;;;;11.44;63.02;101679.59;2399882;28;46970;-86
2022/02/20 04:21:16;;;;;;;;;7.25;3.50;;;;;11.46;63.15;101690.06;2394540;28;45227;-86
2022/02/20 04:22:26;;;;;;;;;5.75;2.00;;;;;11.46;63.30;101685.69;2394720;28;45289;-86
2022/02/20 04:23:37;;;;;;;;;6.75;1.50;;;;;11.47;63.09;101686.56;2394992;28;44759;-87
2022/02/20 04:24:47;;;;;;;;;3.50;2.50;;;;;11.48;63.32;101690.94;2394384;28;45387;-87
2022/02/20 04:26:01;;;;;;;;;4.25;3.00;;;;;11.49;63.03;101682.13;2394974;28;45317;-87
2022/02/20 04:27:12;;;;;;;;;6.25;3.25;;;;;11.48;63.27;101675.13;2394721;28;46341;-85
2022/02/20 04:28:22;;;;;;;;;3.25;2.25;;;;;11.48;63.12;101681.25;2394907;28;45337;-85
2022/02/20 04:29:33;;;;;;;;;2.75;1.75;;;;;11.48;63.50;101678.63;2399226;28;46974;-85
2022/02/20 04:30:43;;;;;;;;;6.25;2.75;;;;;11.49;63.07;101679.50;2394487;28;45259;-85
2022/02/20 04:31:54;;;;;;;;;5.50;3.00;;;;;11.50;63.27;101675.97;2394623;28;45266;-85
2022/02/20 04:33:04;;;;;;;;;3.75;3.25;;;;;11.52;63.08;101684.69;2394579;28;44618;-86
2022/02/20 04:34:15;;;;;;;;;3.50;3.25;;;;;11.49;63.26;101682.13;2394713;28;45329;-86
2022/02/20 04:35:25;;;;;;;;;6.00;2.75;;;;;11.53;63.04;101683.78;2394707;28;45254;-87
2022/02/20 04:36:36;;;;;;;;;7.00;4.75;;;;;11.51;63.22;101685.59;2394709;28;46059;-87
2022/02/20 04:37:46;;;;;;;;;4.50;4.00;;;;;11.51;63.11;101687.38;2394874;28;45163;-87
2022/02/20 04:38:56;;;;;;;;;4.25;2.50;;;;;11.51;63.11;101695.28;2394788;28;45370;-88
2022/02/20 04:40:07;;;;;;;;;5.75;2.50;;;;;11.50;63.06;101697.03;2396676;28;45397;-86
2022/02/20 04:41:21;;;;;;;;;4.25;3.50;;;;;11.47;63.17;101691.81;2394307;28;46344;-86
2022/02/20 04:42:31;;;;;;;;;9.00;4.00;;;;;11.48;63.09;101689.16;2394774;28;45161;-87
2022/02/20 04:43:42;;;;;;;;;3.00;3.00;;;;;11.47;63.14;101684.78;2393896;28;47150;-87
2022/02/20 04:44:52;;;;;;;;;3.25;3.25;;;;;11.44;63.30;101674.31;2387097;28;44680;-86
2022/02/20 04:46:03;;;;;;;;;3.50;3.00;;;;;11.44;63.31;101684.84;2394010;28;45358;-86
2022/02/20 04:47:13;;;;;;;;;4.25;2.00;;;;;11.44;63.06;101679.59;2394523;28;45215;-86
2022/02/20 04:48:24;;;;;;;;;5.25;3.50;;;;;11.45;63.25;101686.59;2401451;28;46464;-87
2022/02/20 04:49:35;;;;;;;;;5.75;3.00;;;;;11.41;63.17;101679.66;2395907;28;45382;-86
2022/02/20 04:50:45;;;;;;;;;3.00;2.00;;;;;11.42;63.30;101672.63;2393905;28;46477;-87
2022/02/20 04:51:55;;;;;;;;;4.00;2.50;;;;;11.41;63.12;101669.13;2394092;28;45278;-85
2022/02/20 04:53:06;;;;;;;;;7.75;3.00;;;;;11.42;62.92;101662.97;2394001;28;46434;-86
2022/02/20 04:54:16;;;;;;;;;2.25;0.75;;;;;11.41;63.25;101655.97;2394636;28;45218;-87
2022/02/20 04:55:27;;;;;;;;;5.50;3.00;;;;;11.39;63.07;101652.50;2394502;28;46404;-87
2022/02/20 04:56:37;;;;;;;;;1.50;1.50;;;;;11.39;63.34;101655.13;2394806;28;45317;-86
2022/02/20 04:57:47;;;;;;;;;4.50;4.25;;;;;11.37;63.21;101643.78;2396213;28;45384;-86
2022/02/20 04:58:58;;;;;;;;;3.00;1.75;;;;;11.38;62.94;101645.50;2398657;28;45509;-85
2022/02/20 05:00:10;;;;;;;;;3.50;3.00;;;;;11.38;63.16;101644.66;2394524;28;45384;-84
2022/02/20 05:01:22;;;;;;;;;6.50;2.75;;;;;11.38;63.16;101642.00;2394570;28;45294;-87
2022/02/20 05:02:32;;;;;;;;;3.75;2.00;;;;;11.38;63.21;101635.00;2394161;28;45750;-86
2022/02/20 05:03:43;;;;;;;;;2.75;1.00;;;;;11.38;63.12;101635.00;2393846;28;45254;-82
2022/02/20 05:04:53;;;;;;;;;8.50;3.00;;;;;11.40;63.46;101643.72;2386881;28;46431;-87
2022/02/20 05:06:03;;;;;;;;;2.25;1.50;;;;;11.39;63.37;101633.19;2394019;28;45248;-84
2022/02/20 05:07:14;;;;;;;;;3.25;3.25;;;;;11.40;63.40;101634.94;2397269;28;47155;-84
2022/02/20 05:08:24;;;;;;;;;5.25;2.00;;;;;11.40;63.22;101634.94;2400798;28;45183;-85
2022/02/20 05:09:35;;;;;;;;;7.00;3.25;;;;;11.38;63.22;101627.09;2394279;28;46332;-87
2022/02/20 05:10:45;;;;;;;;;6.25;5.00;;;;;11.40;63.32;101630.56;2402844;28;45322;-86
2022/02/20 05:11:56;;;;;;;;;4.25;3.25;;;;;11.41;63.21;101627.00;2400718;28;46569;-87
2022/02/20 05:13:06;;;;;;;;;3.50;2.00;;;;;11.36;63.14;101619.22;2394269;28;45453;-86
2022/02/20 05:14:17;;;;;;;;;2.75;2.25;;;;;11.39;63.32;101627.94;2394193;28;46599;-86
2022/02/20 05:15:27;;;;;;;;;3.50;1.00;;;;;11.38;63.56;101624.47;2396099;28;45187;-86
2022/02/20 05:16:38;;;;;;;;;4.75;4.50;;;;;11.39;63.27;101622.66;2394946;28;46457;-87
2022/02/20 05:17:49;;;;;;;;;4.50;2.50;;;;;11.40;63.50;101625.28;2394249;28;45432;-90
2022/02/20 05:18:59;;;;;;;;;4.00;1.75;;;;;11.42;63.53;101627.88;2398937;28;48299;-90
2022/02/20 05:20:10;;;;;;;;;8.25;2.50;;;;;11.38;63.20;101627.09;2396445;28;45189;-90
2022/02/20 05:21:21;;;;;;;;;5.75;2.75;;;;;11.40;63.46;101619.16;2400508;28;45456;-91
2022/02/20 05:22:31;;;;;;;;;6.50;3.00;;;;;11.37;63.52;101622.72;2406981;28;45414;-91
2022/02/20 05:23:42;;;;;;;;;2.50;2.25;;;;;11.38;63.60;101627.09;2403264;28;47208;-91
2022/02/20 05:24:54;;;;;;;;;4.75;2.50;;;;;11.39;63.54;101630.56;2394124;28;45294;-84
2022/02/20 05:26:04;;;;;;;;;4.00;3.25;;;;;11.35;63.38;101627.16;2394573;28;45559;-85
2022/02/20 05:27:15;;;;;;;;;2.00;1.00;;;;;11.37;63.15;101622.72;2394483;28;44709;-85
2022/02/20 05:28:26;;;;;;;;;4.50;3.25;;;;;11.37;63.47;101617.44;2393597;28;47199;-84